Terminal Aerodrome Forecast
Issued by NWS

Home | Current Version | Previous Version | Text Only | Print | Product List | Glossary On
Versions: 1 2 3 4 5 6 7 8 9 10 11 12 13 14 15 16 17 18 19 20 21 22 23 24 25 26
000
FTUS43 KDLH 290500 RRA
TAFBRD
TAF
KBRD 290546Z 2906/3006 14006KT P6SM VCSH OVC012
     FM290900 15006KT P6SM OVC009
     FM291500 18006KT 5SM -DZ BR OVC008
     FM291900 27006KT P6SM SCT008 OVC012
     FM292200 31006KT P6SM VCSH OVC012
     FM300300 32008KT P6SM OVC025=

USA.gov is the U.S. government's official web portal to all federal, state and local government web resources and services.